KBXA/BXA METAR and TAF weather

Enter ICAO airport designator
Station Type Date Time Source
KBXA METAR 2020/09/24 10:35 UTC NOAA

KBXA 241035Z AUTO 21008KT 10SM SCT017 OVC025 23/20 A2974 RMK AO2 T02310200


Station Type Date Time Source
KBXA Decoded METAR 2020/09/24 10:35 UTC NOAA

Bogalusa, George R Carr Memorial Air Field, LA, United States (KBXA) 30-48-49N 089-51-53W
Sep 24, 2020 - 06:35 AM EDT / 2020.09.24 1035 UTC
Wind: from the SSW (210 degrees) at 9 MPH (8 KT):0
Visibility: 10 mile(s):0
Sky conditions: overcast
Temperature: 73.6 F (23.1 C)
Dew Point: 68.0 F (20.0 C)
Relative Humidity: 82%
Pressure (altimeter): 29.74 in. Hg (1007 hPa)
ob: KBXA 241035Z AUTO 21008KT 10SM SCT017 OVC025 23/20 A2974 RMK AO2 T02310200
cycle: 10

Station Type Date Time Source
KBXA TAF UTC NOAA

Error!

Example: see airport list